< < Back
Terminal Aerodrome Forecast


Current Version              Previous Versions:   1  2  3  4  5  6  7  8  9  

Terminal Aerodrome Forecast

763
FTUS42 KFFC 180500
TAFCSG
TAF
KCSG 180520Z 1806/1906 08007KT P6SM BKN045
     FM180800 05008KT P6SM BKN025
     FM181100 05012KT 5SM SHRA OVC014
     FM181500 05014G24KT 3SM SHRA BR OVC008
     FM190200 03018G28KT 2SM SHRA BR OVC008=

Latest METAR

467
SAUS70 KWBC 182100
MTRCSG
METAR KCSG 182051Z 01009G16KT 1 1/2SM +RA BR SCT010 BKN017 OVC024 12/11
A3008 RMK AO2 SLP184 P0035 60060 T01220111 58018


USA.gov is the U.S. government's official web portal to all federal, state and local government web resources and services.